• Join FlightAware (Why Join?)
  • Login
  • US Flag 
07:38PM EDT


 

Airport Tracker/Info


-or-


 

Live Flight TrackerFlight Track Log ✈ DAL2391 ✈ 22-Apr-2012 ✈ KJFK - KTPA

Flight Track Log - Related Links

Times and Time Zones

All times are in EDT time to prevent confusion due to time zone crossing. See the DAL2391 flight status page for this flight to view local times or setup timezone preferences in your user account.

Time Position Orientation Groundspeed Altitude Reporting Facility
EDT Latitude Longitude Course Direction KTS MPH feet Rate Location/Type
07:40PM 40.6500 -73.8667 210° Southwest 222 255 2,300  Level New York TRACON
07:41PM 40.5833 -73.9167 207° Southwest 238 274 4,900 2,880 Climbing New York TRACON
07:42PM 40.5333 -73.9500 221° Southwest 270 311 7,800 2,700 Climbing New York TRACON
07:44PM 40.4236 -74.0753 237° Southwest 274 315 12,300 2,220 Climbing New York Center
07:45PM 40.3794 -74.1658 235° Southwest 318 366 14,100 2,220 Climbing New York Center
07:46PM 40.3200 -74.2772 236° Southwest 338 389 16,800 1,380 Climbing New York Center
07:47PM 40.2733 -74.3672 246° West 343 395 17,000 840 Climbing New York Center
07:49PM 40.1928 -74.6075 264° West 348 400 19,500 1,020 Climbing New York Center
07:50PM 40.1822 -74.7403 265° West 394 453 20,200 960 Climbing New York Center
07:51PM 40.1728 -74.8944 264° West 423 487 21,500 1,620 Climbing New York Center
07:52PM 40.1581 -75.0728 264° West 444 511 23,500 1,860 Climbing New York Center
07:53PM 40.1458 -75.2322 258° West 444 511 25,400 1,260 Climbing New York Center
07:54PM 40.1214 -75.3828 229° Southwest 439 505 26,000 300 Climbing New York Center
07:55PM 40.0458 -75.4972 227° Southwest 408 470 26,000  Level New York Center
07:56PM 39.9686 -75.6056 228° Southwest 408 470 26,000  Level New York Center
07:57PM 39.8911 -75.7167 231° Southwest 408 470 26,000  Level New York Center
07:58PM 39.8194 -75.8333 228° Southwest 414 476 26,000  Level New York Center
07:59PM 39.7481 -75.9361 232° Southwest 426 490 26,000  Level New York Center
08:01PM 39.5997 -76.1814 229° Southwest 416 479 26,000  Level Washington Center
08:02PM 39.5242 -76.2936 232° Southwest 416 479 26,000  Level Washington Center
08:03PM 39.4525 -76.4114 230° Southwest 416 479 26,000  Level Washington Center
08:04PM 39.3786 -76.5258 230° Southwest 422 486 26,000  Level Washington Center
08:05PM 39.3028 -76.6431 230° Southwest 427 491 26,000  Level Washington Center
08:06PM 39.2286 -76.7572 231° Southwest 427 491 26,000  Level Washington Center
08:07PM 39.1525 -76.8764 230° Southwest 427 491 26,000  Level Washington Center
08:08PM 39.0783 -76.9900 224° Southwest 427 491 26,000  Level Washington Center
08:09PM 38.9936 -77.0953 221° Southwest 427 491 26,000  Level Washington Center
08:10PM 38.9047 -77.1947 220° Southwest 421 484 26,000  Level Washington Center
08:11PM 38.8139 -77.2914 221° Southwest 421 484 26,000  Level Washington Center
08:12PM 38.7269 -77.3878 220° Southwest 426 490 26,000  Level Washington Center
08:13PM 38.6358 -77.4867 220° Southwest 426 490 26,000  Level Washington Center
08:14PM 38.5467 -77.5825 220° Southwest 426 490 26,000  Level Washington Center
08:15PM 38.4575 -77.6783 221° Southwest 426 490 26,000  Level Washington Center
08:16PM 38.3703 -77.7739 219° Southwest 426 490 26,000  Level Washington Center
08:17PM 38.2811 -77.8664 220° Southwest 420 483 26,000  Level Washington Center
08:18PM 38.1958 -77.9589 220° Southwest 414 476 26,000  Level Washington Center
08:19PM 38.1064 -78.0539 220° Southwest 414 476 26,000  Level Washington Center
08:20PM 38.0189 -78.1458 220° Southwest 414 476 26,000  Level Washington Center
08:21PM 37.9336 -78.2350 217° Southwest 409 471 26,000  Level Washington Center
08:22PM 37.8419 -78.3214 216° Southwest 409 471 26,000  Level Washington Center
08:23PM 37.7525 -78.4047 216° Southwest 409 471 26,000  Level Washington Center
08:24PM 37.6692 -78.4803 218° Southwest 409 471 26,000  Level Washington Center
08:25PM 37.5794 -78.5686 216° Southwest 409 471 26,000  Level Washington Center
08:26PM 37.4897 -78.6517 215° Southwest 409 471 26,000  Level Washington Center
08:27PM 37.4000 -78.7317 216° Southwest 409 471 26,000  Level Washington Center
08:28PM 37.3103 -78.8142 217° Southwest 409 471 26,000  Level Washington Center
08:29PM 37.2117 -78.9064 217° Southwest 409 471 26,000  Level Washington Center
08:30PM 37.1239 -78.9886 217° Southwest 409 471 26,000  Level Washington Center
08:31PM 37.0361 -79.0706 217° Southwest 404 465 26,000  Level Washington Center
08:32PM 36.9503 -79.1525 216° Southwest 399 459 26,000  Level Washington Center
08:33PM 36.8644 -79.2317 216° Southwest 399 459 26,000  Level Washington Center
08:34PM 36.7850 -79.3031 217° Southwest 399 459 26,000  Level Washington Center
08:35PM 36.6989 -79.3844 216° Southwest 399 459 26,000  Level Washington Center
08:36PM 36.6089 -79.4656 215° Southwest 399 459 26,000  Level Washington Center
08:37PM 36.5081 -79.5550 216° Southwest 390 449 26,000  Level Atlanta Center
08:38PM 36.4214 -79.6344 216° Southwest 390 449 26,000  Level Atlanta Center
08:39PM 36.3344 -79.7142 216° Southwest 395 455 26,000  Level Atlanta Center
08:40PM 36.2456 -79.7936 215° Southwest 395 455 26,000  Level Atlanta Center
08:41PM 36.1544 -79.8728 216° Southwest 395 455 26,000  Level Atlanta Center
08:42PM 36.0756 -79.9436 207° Southwest 395 455 26,000  Level Atlanta Center
08:43PM 35.9794 -80.0050 204° Southwest 395 455 26,000  Level Atlanta Center
08:44PM 35.8769 -80.0614 200° South 395 455 26,000  Level Atlanta Center
08:45PM 35.7764 -80.1072 202° Southwest 400 460 26,000  Level Atlanta Center
08:46PM 35.6756 -80.1581 204° Southwest 400 460 26,000  Level Atlanta Center
08:47PM 35.5731 -80.2139 202° Southwest 400 460 26,000  Level Atlanta Center
08:48PM 35.4744 -80.2619 202° Southwest 391 450 26,000  Level Atlanta Center
08:49PM 35.3636 -80.3181 202° Southwest 391 450 26,000  Level Atlanta Center
08:50PM 35.2628 -80.3683 202° Southwest 391 450 26,000  Level Atlanta Center
08:51PM 35.1103 -80.4439 202° Southwest 374 430 26,000  Level Jacksonville Center
08:52PM 35.0111 -80.4925 203° Southwest 374 430 26,000  Level Jacksonville Center
08:53PM 34.9139 -80.5433 201° Southwest 379 436 26,000  Level Jacksonville Center
08:54PM 34.8189 -80.5889 200° South 374 430 26,000  Level Jacksonville Center
08:55PM 34.7258 -80.6292 205° Southwest 368 423 26,000  Level Jacksonville Center
08:56PM 34.6286 -80.6847 202° Southwest 373 429 26,000  Level Jacksonville Center
08:57PM 34.5253 -80.7353 202° Southwest 389 448 26,000  Level Jacksonville Center
08:58PM 34.4383 -80.7778 203° Southwest 389 448 26,000  Level Jacksonville Center
08:59PM 34.3392 -80.8281 200° South 389 448 26,000  Level Jacksonville Center
09:00PM 34.2333 -80.8758 202° Southwest 378 435 26,000  Level Jacksonville Center
09:01PM 34.1361 -80.9231 202° Southwest 378 435 26,000  Level Jacksonville Center
09:02PM 34.0367 -80.9706 202° Southwest 383 441 26,000  Level Jacksonville Center
09:03PM 33.9372 -81.0178 201° Southwest 388 447 26,000  Level Jacksonville Center
09:04PM 33.8461 -81.0597 203° Southwest 388 447 26,000  Level Jacksonville Center
09:05PM 33.7403 -81.1142 203° Southwest 388 447 26,000  Level Jacksonville Center
09:06PM 33.6431 -81.1636 203° Southwest 388 447 26,000  Level Jacksonville Center
09:07PM 33.5497 -81.2103 201° Southwest 394 453 26,000  Level Jacksonville Center
09:08PM 33.4503 -81.2569 203° Southwest 389 448 26,000  Level Jacksonville Center
09:09PM 33.3506 -81.3086 202° Southwest 389 448 26,000  Level Jacksonville Center
09:10PM 33.2489 -81.3575 201° Southwest 389 448 26,000  Level Jacksonville Center
09:11PM 33.1494 -81.4039 203° Southwest 395 455 26,000  Level Jacksonville Center
09:12PM 33.0478 -81.4553 202° Southwest 395 455 26,000  Level Jacksonville Center
09:13PM 32.9458 -81.5039 202° Southwest 390 449 26,000  Level Jacksonville Center
09:14PM 32.8464 -81.5525 202° Southwest 390 449 26,000  Level Jacksonville Center
09:15PM 32.7444 -81.6008 202° Southwest 390 449 26,000  Level Jacksonville Center
09:16PM 32.6428 -81.6492 202° Southwest 390 449 26,000  Level Jacksonville Center
09:17PM 32.5306 -81.7025 202° Southwest 395 455 26,000  Level Jacksonville Center
09:18PM 32.4267 -81.7531 200° South 395 455 26,000  Level Jacksonville Center
09:19PM 32.3331 -81.7936 190° South 395 455 26,000  Level Jacksonville Center
09:20PM 32.2081 -81.8197 190° South 406 467 26,000  Level Jacksonville Center
09:21PM 32.1058 -81.8406 191° South 411 473 26,000  Level Jacksonville Center
09:22PM 31.9808 -81.8689 191° South 417 480 26,000  Level Jacksonville Center
09:23PM 31.8661 -81.8944 190° South 417 480 26,000  Level Jacksonville Center
09:24PM 31.7661 -81.9150 191° South 417 480 26,000  Level Jacksonville Center
09:25PM 31.6369 -81.9433 190° South 417 480 26,000  Level Jacksonville Center
09:26PM 31.5222 -81.9664 190° South 424 488 26,000  Level Jacksonville Center
09:27PM 31.4200 -81.9869 190° South 431 496 26,000  Level Jacksonville Center
09:28PM 31.3011 -82.0125 189° South 435 501 26,000  Level Jacksonville Center
09:29PM 31.1844 -82.0353 191° South 435 501 26,000  Level Jacksonville Center
09:30PM 31.0697 -82.0606 189° South 430 495 26,000  Level Jacksonville Center
09:31PM 30.9508 -82.0833 190° South 430 495 26,000  Level Jacksonville Center
09:32PM 30.8361 -82.1064 190° South 430 495 26,000  Level Jacksonville Center
09:33PM 30.7047 -82.1339 191° South 435 501 26,000  Level Jacksonville Center
09:34PM 30.5900 -82.1589 189° South 435 501 26,000  Level Jacksonville Center
09:35PM 30.4733 -82.1792 193° South 425 489 26,000  Level Jacksonville Center
09:36PM 30.3608 -82.2089 204° Southwest 425 489 26,000  Level Jacksonville Center
09:37PM 30.2567 -82.2625 204° Southwest 419 482 26,000  Level Jacksonville Center
09:38PM 30.1503 -82.3161 190° South 419 482 26,000  Level Jacksonville Center
09:39PM 30.0314 -82.3408 180° South 424 488 26,000  Level Jacksonville Center
09:40PM 29.9103 -82.3414 182° South 429 494 26,000  Level Jacksonville Center
09:41PM 29.7914 -82.3469 181° South 429 494 26,000  Level Jacksonville Center
09:42PM 29.6683 -82.3500 180° South 429 494 26,000  Level Jacksonville Center
09:43PM 29.5472 -82.3506 174° South 434 499 26,000  Level Jacksonville Center
09:44PM 29.4261 -82.3369 175° South 441 507 26,000 -600 Level Jacksonville Center
09:45PM 29.3028 -82.3233 175° South 441 507 24,800 -1,380 Descending Jacksonville Center
09:46PM 29.1964 -82.3122 174° South 441 507 23,300 -2,100 Descending Jacksonville Center
09:47PM 29.0794 -82.2986 174° South 434 499 20,700 -2,820 Descending Jacksonville Center
09:48PM 28.9686 -82.2850 174° South 417 480 17,700 -2,580 Descending Jacksonville Center
09:51PM 28.6833 -82.2500 180° South 383 441 12,000 -1,980 Descending Tampa TRACON
09:52PM 28.5833 -82.2500 196° South 376 433 11,000 -600 Descending Tampa TRACON
09:53PM 28.4833 -82.2833 196° South 370 426 10,900 -60 Descending Tampa TRACON
09:54PM 28.3833 -82.3167 188° South 369 425 10,900  Level Tampa TRACON
09:55PM 28.2833 -82.3333 190° South 356 410 11,000 -540 Climbing Tampa TRACON
09:56PM 28.2000 -82.3500 199° South 310 357 9,900 -1,320 Descending Tampa TRACON
09:57PM 28.1167 -82.3833 190° South 295 339 8,300 -1,560 Descending Tampa TRACON
09:58PM 28.0333 -82.4000 192° South 284 327 6,800 -1,560 Descending Tampa TRACON
09:59PM 27.9667 -82.4167 180° South 283 326 5,200 -1,560 Descending Tampa TRACON
10:00PM 27.8833 -82.4167 180° South 277 319 3,600 -1,620 Descending Tampa TRACON